Time,TemperatureF,DewpointF,PressureIn,WindDirection,WindDirectionDegrees,WindSpeedMPH,WindSpeedGustMPH,Humidity,HourlyPrecipIn,Conditions,Clouds,dailyrainin,SoftwareType,DateUTC
2013-01-08 02:52:00,31.0,29.0,-100.00,South,180,19.0,22.0,93,-99.99,,,0.00,,2013-01-08 09:52:00,
2013-01-08 03:02:00,31.0,29.0,-100.00,South,180,19.0,22.0,93,-99.99,,,0.00,,2013-01-08 10:02:00,
2013-01-08 03:12:00,31.0,30.0,-100.00,South,175,13.0,16.0,93,-99.99,,,0.00,,2013-01-08 10:12:00,
2013-01-08 03:22:00,31.0,30.0,-100.00,South,175,13.0,16.0,93,-99.99,,,0.00,,2013-01-08 10:22:00,
2013-01-08 03:32:00,32.0,30.0,-100.00,South,180,19.0,21.0,92,-99.99,,,0.00,,2013-01-08 10:32:00,
2013-01-08 03:42:00,32.0,30.0,-100.00,South,180,19.0,21.0,92,-99.99,,,0.00,,2013-01-08 10:42:00,
2013-01-08 03:52:00,33.0,30.0,-100.00,South,180,19.0,21.0,91,-99.99,,,0.00,,2013-01-08 10:52:00,
2013-01-08 04:02:00,33.0,30.0,-100.00,South,180,19.0,21.0,91,-99.99,,,0.00,,2013-01-08 11:02:00,
2013-01-08 04:12:00,33.0,30.0,-100.00,South,190,16.0,19.0,87,-99.99,,,0.00,,2013-01-08 11:12:00,
2013-01-08 04:22:00,33.0,30.0,-100.00,South,190,16.0,19.0,87,-99.99,,,0.00,,2013-01-08 11:22:00,
2013-01-08 04:33:00,34.0,30.0,-100.00,South,190,19.0,20.0,86,-99.99,,,0.00,,2013-01-08 11:33:00,
2013-01-08 04:42:00,34.0,30.0,-100.00,South,190,19.0,20.0,86,-99.99,,,0.00,,2013-01-08 11:42:00,
2013-01-08 04:53:00,34.0,30.0,-100.00,SSW,200,16.0,18.0,86,-99.99,,,0.00,,2013-01-08 11:53:00,
2013-01-08 05:02:00,34.0,30.0,-100.00,SSW,200,16.0,18.0,86,-99.99,,,0.00,,2013-01-08 12:02:00,
2013-01-08 05:12:00,34.0,30.0,-100.00,SW,215,8.0,10.0,85,-99.99,,,0.00,,2013-01-08 12:12:00,
2013-01-08 05:22:00,34.0,30.0,-100.00,SW,215,8.0,10.0,85,-99.99,,,0.00,,2013-01-08 12:22:00,
2013-01-08 05:33:00,34.0,30.0,-100.00,SSW,205,11.0,14.0,85,-99.99,,,0.00,,2013-01-08 12:33:00,
2013-01-08 05:42:00,34.0,30.0,-100.00,SSW,205,11.0,14.0,85,-99.99,,,0.00,,2013-01-08 12:42:00,
2013-01-08 05:53:00,34.0,30.0,-100.00,SSW,205,16.0,18.0,85,-99.99,,,0.00,,2013-01-08 12:53:00,
2013-01-08 06:03:00,34.0,30.0,-100.00,SSW,205,16.0,18.0,85,-99.99,,,0.00,,2013-01-08 13:03:00,
2013-01-08 06:12:00,35.0,30.0,-100.00,SSW,210,15.0,19.0,81,-99.99,,,0.00,,2013-01-08 13:12:00,
2013-01-08 06:22:00,35.0,30.0,-100.00,SSW,210,15.0,19.0,81,-99.99,,,0.00,,2013-01-08 13:22:00,
2013-01-08 06:33:00,35.0,29.0,-100.00,SW,230,15.0,17.0,79,-99.99,,,0.00,,2013-01-08 13:33:00,
2013-01-08 06:42:00,35.0,29.0,-100.00,SW,230,15.0,17.0,79,-99.99,,,0.00,,2013-01-08 13:42:00,
2013-01-08 06:52:00,36.0,27.0,-100.00,SW,235,21.0,23.0,70,-99.99,,,0.00,,2013-01-08 13:52:00,
2013-01-08 07:02:00,36.0,27.0,-100.00,SW,235,21.0,23.0,70,-99.99,,,0.00,,2013-01-08 14:02:00,
2013-01-08 07:12:00,36.0,25.0,-100.00,WSW,255,17.0,22.0,66,-99.99,,,0.00,,2013-01-08 14:12:00,
2013-01-08 07:23:00,36.0,25.0,-100.00,WSW,255,17.0,22.0,66,-99.99,,,0.00,,2013-01-08 14:23:00,
2013-01-08 07:33:00,35.0,25.0,-100.00,WSW,255,15.0,17.0,67,-99.99,,,0.00,,2013-01-08 14:33:00,
2013-01-08 07:43:00,35.0,25.0,-100.00,WSW,255,15.0,17.0,67,-99.99,,,0.00,,2013-01-08 14:43:00,
2013-01-08 07:53:00,34.0,25.0,-100.00,WSW,250,13.0,14.0,68,-99.99,,,0.00,,2013-01-08 14:53:00,
2013-01-08 08:02:00,34.0,25.0,-100.00,WSW,250,13.0,14.0,68,-99.99,,,0.00,,2013-01-08 15:02:00,
2013-01-08 08:12:00,34.0,24.0,-100.00,WSW,255,14.0,15.0,67,-99.99,,,0.00,,2013-01-08 15:12:00,
2013-01-08 08:22:00,34.0,24.0,-100.00,WSW,255,14.0,15.0,67,-99.99,,,0.00,,2013-01-08 15:22:00,
2013-01-08 08:33:00,35.0,25.0,-100.00,WSW,250,12.0,12.0,67,-99.99,,,0.00,,2013-01-08 15:33:00,
2013-01-08 08:43:00,35.0,25.0,-100.00,WSW,250,12.0,12.0,67,-99.99,,,0.00,,2013-01-08 15:43:00,
2013-01-08 08:53:00,34.0,24.0,-100.00,SW,235,11.0,11.0,67,-99.99,,,0.00,,2013-01-08 15:53:00,
2013-01-08 09:03:00,34.0,24.0,-100.00,SW,235,11.0,11.0,67,-99.99,,,0.00,,2013-01-08 16:03:00,
2013-01-08 09:12:00,34.0,24.0,-100.00,West,260,8.0,9.0,67,-99.99,,,0.00,,2013-01-08 16:12:00,
2013-01-08 09:22:00,34.0,24.0,-100.00,West,260,8.0,9.0,67,-99.99,,,0.00,,2013-01-08 16:22:00,
2013-01-08 09:34:00,34.0,24.0,-100.00,WSW,255,6.0,6.0,66,-99.99,,,0.00,,2013-01-08 16:34:00,
2013-01-08 09:42:00,34.0,24.0,-100.00,WSW,255,6.0,6.0,66,-99.99,,,0.00,,2013-01-08 16:42:00,
2013-01-08 09:52:00,34.0,24.0,-100.00,SW,225,9.0,11.0,66,-99.99,,,0.00,,2013-01-08 16:52:00,
2013-01-08 10:03:00,34.0,24.0,-100.00,SW,225,9.0,11.0,66,-99.99,,,0.00,,2013-01-08 17:03:00,
2013-01-08 10:13:00,35.0,24.0,-100.00,SW,220,11.0,12.0,64,-99.99,,,0.00,,2013-01-08 17:13:00,
2013-01-08 10:23:00,35.0,24.0,-100.00,SW,220,11.0,12.0,64,-99.99,,,0.00,,2013-01-08 17:23:00,
2013-01-08 10:33:00,35.0,24.0,-100.00,SW,225,11.0,12.0,63,-99.99,,,0.00,,2013-01-08 17:33:00,
2013-01-08 10:43:00,35.0,24.0,-100.00,SW,225,11.0,12.0,63,-99.99,,,0.00,,2013-01-08 17:43:00,
2013-01-08 10:53:00,37.0,24.0,-100.00,WSW,240,11.0,12.0,59,-99.99,,,0.00,,2013-01-08 17:53:00,
2013-01-08 11:03:00,37.0,24.0,-100.00,WSW,240,11.0,12.0,59,-99.99,,,0.00,,2013-01-08 18:03:00,
2013-01-08 11:13:00,37.0,24.0,-100.00,SW,225,8.0,8.0,59,-99.99,,,0.00,,2013-01-08 18:13:00,
2013-01-08 11:23:00,37.0,24.0,-100.00,SW,225,8.0,8.0,59,-99.99,,,0.00,,2013-01-08 18:23:00,
2013-01-08 11:33:00,36.0,24.0,-100.00,West,260,13.0,16.0,62,-99.99,,,0.00,,2013-01-08 18:33:00,
2013-01-08 11:43:00,36.0,24.0,-100.00,West,260,13.0,16.0,62,-99.99,,,0.00,,2013-01-08 18:43:00,
2013-01-08 11:53:00,36.0,25.0,-100.00,WSW,255,16.0,18.0,64,-99.99,,,0.00,,2013-01-08 18:53:00,
2013-01-08 12:03:00,36.0,25.0,-100.00,WSW,255,16.0,18.0,64,-99.99,,,0.00,,2013-01-08 19:03:00,
2013-01-08 12:12:00,35.0,26.0,-100.00,West,265,14.0,17.0,68,-99.99,,,0.00,,2013-01-08 19:12:00,
2013-01-08 12:23:00,35.0,26.0,-100.00,West,265,14.0,17.0,68,-99.99,,,0.00,,2013-01-08 19:23:00,
2013-01-08 12:32:00,35.0,26.0,-100.00,West,265,14.0,16.0,69,-99.99,,,0.00,,2013-01-08 19:32:00,
2013-01-08 12:42:00,35.0,26.0,-100.00,West,265,14.0,16.0,69,-99.99,,,0.00,,2013-01-08 19:42:00,
2013-01-08 12:53:00,36.0,27.0,-100.00,West,265,18.0,20.0,70,-99.99,,,0.00,,2013-01-08 19:53:00,
2013-01-08 13:03:00,36.0,27.0,-100.00,West,265,18.0,20.0,70,-99.99,,,0.00,,2013-01-08 20:03:00,
2013-01-08 13:12:00,36.0,27.0,-100.00,West,270,16.0,17.0,72,-99.99,,,0.00,,2013-01-08 20:12:00,
2013-01-08 13:23:00,36.0,27.0,-100.00,West,270,16.0,17.0,72,-99.99,,,0.00,,2013-01-08 20:23:00,
2013-01-08 13:33:00,36.0,26.0,-100.00,WNW,285,22.0,24.0,69,-99.99,,,0.00,,2013-01-08 20:33:00,
2013-01-08 13:43:00,36.0,26.0,-100.00,WNW,285,22.0,24.0,69,-99.99,,,0.00,,2013-01-08 20:43:00,
2013-01-08 13:53:00,35.0,26.0,-100.00,West,280,17.0,20.0,70,-99.99,,,0.00,,2013-01-08 20:53:00,
2013-01-08 14:03:00,35.0,26.0,-100.00,West,280,17.0,20.0,70,-99.99,,,0.00,,2013-01-08 21:03:00,
2013-01-08 14:13:00,34.0,27.0,-100.00,West,270,17.0,19.0,77,-99.99,,,0.00,,2013-01-08 21:13:00,
2013-01-08 14:23:00,34.0,27.0,-100.00,West,270,17.0,19.0,77,-99.99,,,0.00,,2013-01-08 21:23:00,
2013-01-08 14:33:00,33.0,28.0,-100.00,West,270,17.0,19.0,80,-99.99,,,0.00,,2013-01-08 21:33:00,
2013-01-08 14:43:00,33.0,28.0,-100.00,West,270,17.0,19.0,80,-99.99,,,0.00,,2013-01-08 21:43:00,
2013-01-08 14:53:00,33.0,29.0,-100.00,West,270,16.0,18.0,86,-99.99,,,0.00,,2013-01-08 21:53:00,
2013-01-08 15:03:00,33.0,29.0,-100.00,West,270,16.0,18.0,86,-99.99,,,0.00,,2013-01-08 22:03:00,
2013-01-08 15:12:00,32.0,29.0,-100.00,West,270,15.0,17.0,90,-99.99,,,0.00,,2013-01-08 22:12:00,
2013-01-08 15:23:00,32.0,29.0,-100.00,West,270,15.0,17.0,90,-99.99,,,0.00,,2013-01-08 22:23:00,
2013-01-08 15:33:00,32.0,29.0,-100.00,West,265,15.0,18.0,89,-99.99,,,0.00,,2013-01-08 22:33:00,
2013-01-08 15:43:00,32.0,29.0,-100.00,West,265,15.0,18.0,89,-99.99,,,0.00,,2013-01-08 22:43:00,
2013-01-08 15:52:00,32.0,29.0,-100.00,West,270,16.0,18.0,88,-99.99,,,0.00,,2013-01-08 22:52:00,
2013-01-08 16:02:00,32.0,29.0,-100.00,West,270,16.0,18.0,88,-99.99,,,0.00,,2013-01-08 23:02:00,
2013-01-08 16:12:00,32.0,28.0,-100.00,WSW,245,15.0,17.0,85,-99.99,,,0.00,,2013-01-08 23:12:00,
2013-01-08 16:22:00,32.0,28.0,-100.00,WSW,245,15.0,17.0,85,-99.99,,,0.00,,2013-01-08 23:22:00,
2013-01-08 16:32:00,31.0,27.0,-100.00,SW,235,14.0,16.0,83,-99.99,,,0.00,,2013-01-08 23:32:00,
2013-01-08 16:43:00,31.0,27.0,-100.00,SW,235,14.0,16.0,83,-99.99,,,0.00,,2013-01-08 23:43:00,
2013-01-08 16:52:00,31.0,26.0,-100.00,SW,230,12.0,13.0,81,-99.99,,,0.00,,2013-01-08 23:52:00,
2013-01-08 17:02:00,31.0,26.0,-100.00,SW,230,12.0,13.0,81,-99.99,,,0.00,,2013-01-09 00:02:00,
2013-01-08 17:12:00,29.0,24.0,-100.00,SW,225,14.0,16.0,80,-99.99,,,0.00,,2013-01-09 00:12:00,
2013-01-08 17:22:00,29.0,24.0,-100.00,SW,225,14.0,16.0,80,-99.99,,,0.00,,2013-01-09 00:22:00,
2013-01-08 17:33:00,29.0,24.0,-100.00,SW,230,14.0,16.0,81,-99.99,,,0.00,,2013-01-09 00:33:00,
2013-01-08 17:42:00,29.0,24.0,-100.00,SW,230,14.0,16.0,81,-99.99,,,0.00,,2013-01-09 00:42:00,
2013-01-08 17:52:00,29.0,24.0,-100.00,WSW,240,18.0,21.0,80,-99.99,,,0.00,,2013-01-09 00:52:00,
2013-01-08 18:02:00,29.0,24.0,-100.00,WSW,240,18.0,21.0,80,-99.99,,,0.00,,2013-01-09 01:02:00,
2013-01-08 18:12:00,29.0,24.0,-100.00,WSW,240,18.0,22.0,79,-99.99,,,0.00,,2013-01-09 01:12:00,
2013-01-08 18:22:00,29.0,24.0,-100.00,WSW,240,18.0,22.0,79,-99.99,,,0.00,,2013-01-09 01:22:00,
2013-01-08 18:32:00,30.0,24.0,-100.00,WSW,245,21.0,23.0,76,-99.99,,,0.00,,2013-01-09 01:32:00,
2013-01-08 18:42:00,30.0,24.0,-100.00,WSW,245,21.0,23.0,76,-99.99,,,0.00,,2013-01-09 01:42:00,
2013-01-08 18:52:00,30.0,23.0,-100.00,WSW,255,21.0,22.0,75,-99.99,,,0.00,,2013-01-09 01:52:00,
2013-01-08 19:02:00,30.0,23.0,-100.00,WSW,255,21.0,22.0,75,-99.99,,,0.00,,2013-01-09 02:02:00,
2013-01-08 19:12:00,30.0,22.0,-100.00,WSW,255,16.0,17.0,72,-99.99,,,0.00,,2013-01-09 02:12:00,
2013-01-08 19:22:00,30.0,22.0,-100.00,WSW,255,16.0,17.0,72,-99.99,,,0.00,,2013-01-09 02:22:00,
2013-01-08 19:33:00,29.0,21.0,-100.00,WSW,255,19.0,23.0,70,-99.99,,,0.00,,2013-01-09 02:33:00,
2013-01-08 19:42:00,29.0,21.0,-100.00,WSW,255,19.0,23.0,70,-99.99,,,0.00,,2013-01-09 02:42:00,
2013-01-08 19:52:00,29.0,20.0,-100.00,WSW,255,15.0,16.0,69,-99.99,,,0.00,,2013-01-09 02:52:00,
2013-01-08 20:03:00,29.0,20.0,-100.00,WSW,255,15.0,16.0,69,-99.99,,,0.00,,2013-01-09 03:03:00,
2013-01-08 20:12:00,28.0,17.0,-100.00,WSW,255,19.0,23.0,63,-99.99,,,0.00,,2013-01-09 03:12:00,
2013-01-08 20:22:00,28.0,17.0,-100.00,WSW,255,19.0,23.0,63,-99.99,,,0.00,,2013-01-09 03:22:00,
2013-01-08 20:33:00,27.0,16.0,-100.00,WSW,255,16.0,17.0,63,-99.99,,,0.00,,2013-01-09 03:33:00,
2013-01-08 20:43:00,27.0,16.0,-100.00,WSW,255,16.0,17.0,63,-99.99,,,0.00,,2013-01-09 03:43:00,
2013-01-08 20:52:00,27.0,16.0,-100.00,West,260,15.0,17.0,62,-99.99,,,0.00,,2013-01-09 03:52:00,
2013-01-08 21:02:00,27.0,16.0,-100.00,West,260,15.0,17.0,62,-99.99,,,0.00,,2013-01-09 04:02:00,
2013-01-08 21:12:00,26.0,15.0,-100.00,West,260,17.0,19.0,61,-99.99,,,0.00,,2013-01-09 04:12:00,
2013-01-08 21:22:00,26.0,15.0,-100.00,West,260,17.0,19.0,61,-99.99,,,0.00,,2013-01-09 04:22:00,
2013-01-08 21:32:00,26.0,15.0,-100.00,West,260,16.0,18.0,61,-99.99,,,0.00,,2013-01-09 04:32:00,
2013-01-08 21:42:00,26.0,15.0,-100.00,West,260,16.0,18.0,61,-99.99,,,0.00,,2013-01-09 04:42:00,
2013-01-08 21:52:00,26.0,15.0,-100.00,West,260,17.0,19.0,61,-99.99,,,0.00,,2013-01-09 04:52:00,
2013-01-08 22:03:00,26.0,15.0,-100.00,West,260,17.0,19.0,61,-99.99,,,0.00,,2013-01-09 05:03:00,
2013-01-08 22:12:00,26.0,14.0,-100.00,WSW,240,14.0,16.0,61,-99.99,,,-99.99,,2013-01-09 05:12:00,
2013-01-08 22:22:00,26.0,14.0,-100.00,WSW,240,14.0,16.0,61,-99.99,,,-99.99,,2013-01-09 05:22:00,
2013-01-08 22:33:00,25.0,14.0,-100.00,SW,230,14.0,16.0,62,-99.99,,,-99.99,,2013-01-09 05:33:00,
2013-01-08 22:42:00,25.0,14.0,-100.00,SW,230,14.0,16.0,62,-99.99,,,-99.99,,2013-01-09 05:42:00,
2013-01-08 22:52:00,25.0,14.0,-100.00,SW,230,14.0,15.0,61,-99.99,,,-99.99,,2013-01-09 05:52:00,
2013-01-08 23:02:00,25.0,14.0,-100.00,SW,230,14.0,15.0,61,-99.99,,,-99.99,,2013-01-09 06:02:00,
2013-01-08 23:12:00,23.0,12.0,-100.00,SW,230,12.0,12.0,62,-99.99,,,-99.99,,2013-01-09 06:12:00,
2013-01-08 23:22:00,23.0,12.0,-100.00,SW,230,12.0,12.0,62,-99.99,,,-99.99,,2013-01-09 06:22:00,
2013-01-08 23:32:00,22.0,12.0,-100.00,WSW,245,11.0,11.0,65,-99.99,,,-99.99,,2013-01-09 06:32:00,
2013-01-08 23:42:00,22.0,12.0,-100.00,WSW,245,11.0,11.0,65,-99.99,,,-99.99,,2013-01-09 06:42:00,
2013-01-08 23:52:00,22.0,12.0,-100.00,WSW,245,11.0,12.0,65,-99.99,,,-99.99,,2013-01-09 06:52:00,